Barnard Township, Maine
Current Conditions -  °F | °C
As of 7:34 PM on Monday 24 Nov 2014 (Local Time) from KMLT Reporting Station
Overcast Overcast  
Wind Chill: 58°   Ceiling: 600
Heat Index: 58°   Visibility: 10mi
Dew Point: 56°   Wind: 6mph
Humidity: 93%   Direction: NA
Pressure: 29.49"   Gusts: NA
Location:  45.4731°N, 69.1129°W
Report Text: KMLT 250034Z AUTO VRB05KT 10SM OVC006 14/13 A2949 RMK AO2 RAB08E31 P0000 T01440133
Loading
Personal Weather Stations






























Interactive Weather Map New forecast layout! Learn more

10-Day Weather Forecast

Advertisements
Track Severe Weather on mobile